Terminal Aerodrome Forecast
Issued by NWS Hastings, NE

Home | Current Version | Previous Version | Text Only | Print | Product List | Glossary On
Versions: 1 2 3 4 5 6 7 8 9 10 11 12 13 14 15 16 17 18 19 20
000
FTUS43 KGID 011358 AAA
TAFGRI
TAF AMD
KGRI 011358Z 0114/0212 36014KT P6SM OVC012
     FM011600 36014KT P6SM OVC015
     FM012000 01012KT P6SM OVC025
     FM012200 36011KT P6SM BKN035
     FM020600 32006KT P6SM SCT150=

USA.gov is the U.S. government's official web portal to all federal, state and local government web resources and services.